Flat Rock, Alabama
Current Conditions -  °F | °C
As of 4:15 AM on Thursday 23 Oct 2014 (Local Time) from K4A6 Reporting Station
Clear Clear  
Wind Chill: 38°   Ceiling: Unl
Heat Index: 43°   Visibility: 10mi
Dew Point: 39°   Wind: 8mph
Humidity: 87%   Direction: 60°ENE
Pressure: 30.16"   Gusts: NA
Location:  34.77°N, 85.69°W
Report Text: K4A6 230915Z AUTO 06007KT 10SM CLR 06/04 A3016 RMK AO2
Loading
Personal Weather Stations






























Interactive Weather Map
Tropical Storm Tracking
New forecast layout! Learn more

10-Day Weather Forecast

Advertisements
Track Severe Weather on mobile